Time;durP1;ratioP1;P1;durP2;ratioP2;P2;SDS_P1;SDS_P2;PMS_P1;PMS_P2;Temp;Humidity;BMP_temperature;BMP_pressure;BME280_temperature;BME280_humidity;BME280_pressure;Samples;Min_cycle;Max_cycle;Signal;HPM_P1;HPM_P2
2022/01/12 00:00:22;;;;;;;9.65;5.03;;;;;;;-5.38;65.08;101617.25;1775103;80;20845;-74
2022/01/12 00:02:50;;;;;;;8.03;4.40;;;;;;;-5.40;65.26;101624.02;1775424;80;20972;-77
2022/01/12 00:05:16;;;;;;;8.88;4.92;;;;;;;-5.38;65.44;101625.31;1775268;80;20995;-77
2022/01/12 00:07:43;;;;;;;7.28;4.70;;;;;;;-5.37;65.47;101624.07;1775335;80;21669;-77
2022/01/12 00:10:12;;;;;;;8.85;4.83;;;;;;;-5.43;65.18;101625.21;1774990;80;20988;-76
2022/01/12 00:12:39;;;;;;;9.58;4.28;;;;;;;-5.48;65.22;101627.67;1775081;80;20975;-77
2022/01/12 00:15:07;;;;;;;6.37;4.30;;;;;;;-5.47;64.94;101624.30;1775206;80;20889;-76
2022/01/12 00:17:33;;;;;;;7.95;5.08;;;;;;;-5.54;64.57;101628.80;1775209;80;21431;-76
2022/01/12 00:20:01;;;;;;;5.83;4.28;;;;;;;-5.57;64.40;101619.80;1728442;80;21159;-76
2022/01/12 00:22:28;;;;;;;7.58;4.40;;;;;;;-5.64;64.14;101625.61;1775027;80;20940;-75
2022/01/12 00:33:14;;;;;;;7.45;4.25;;;;;;;-5.73;64.92;101629.23;1775163;80;21548;-76
2022/01/12 00:35:45;;;;;;;7.65;5.37;;;;;;;-5.74;64.67;101628.35;1774988;80;21358;-77
2022/01/12 00:38:12;;;;;;;7.72;5.22;;;;;;;-5.77;64.67;101628.30;1774656;80;20931;-76
2022/01/12 00:40:42;;;;;;;6.30;4.80;;;;;;;-5.77;64.87;101615.52;1775063;80;20936;-77
2022/01/12 00:43:10;;;;;;;8.35;4.30;;;;;;;-5.79;64.78;101631.22;1775059;80;21419;-78
2022/01/12 00:45:41;;;;;;;4.95;3.62;;;;;;;-5.79;64.78;101619.73;1775064;80;21155;-77
2022/01/12 00:48:07;;;;;;;9.55;5.10;;;;;;;-5.81;64.37;101624.36;1775263;80;21521;-77
2022/01/12 00:50:34;;;;;;;7.62;5.33;;;;;;;-5.84;64.44;101625.16;1775507;80;20845;-82
2022/01/12 00:53:03;;;;;;;5.03;3.80;;;;;;;-5.89;64.55;101635.27;1775694;80;20967;-75
2022/01/12 00:55:31;;;;;;;6.60;4.95;;;;;;;-5.90;64.56;101632.24;1776544;80;20979;-76
2022/01/12 00:57:58;;;;;;;6.33;3.87;;;;;;;-5.87;64.68;101632.34;1775219;80;21131;-77
2022/01/12 01:00:26;;;;;;;6.87;4.65;;;;;;;-5.84;64.79;101631.55;1775076;80;20881;-77
2022/01/12 01:02:54;;;;;;;6.33;4.12;;;;;;;-5.82;64.77;101636.27;1775076;80;20993;-76
2022/01/12 01:05:23;;;;;;;7.08;4.70;;;;;;;-5.79;64.64;101640.59;1775020;80;20943;-76
2022/01/12 01:07:50;;;;;;;7.72;4.83;;;;;;;-5.82;63.88;101633.72;1775382;80;21413;-76
2022/01/12 01:10:31;;;;;;;7.60;4.60;;;;;;;-5.90;64.11;101628.84;1775140;80;21525;-75
2022/01/12 01:12:47;;;;;;;13.28;4.00;;;;;;;-5.99;64.13;101643.55;1772749;80;20971;-76
2022/01/12 01:15:17;;;;;;;11.08;4.33;;;;;;;-6.04;63.86;101633.66;1775075;80;21370;-77
2022/01/12 01:25:44;;;;;;;5.35;4.53;;;;;;;-6.00;64.90;101647.34;1775268;80;20888;-77
2022/01/12 01:28:13;;;;;;;7.40;4.60;;;;;;;-5.95;65.15;101642.80;1775129;80;20935;-78
2022/01/12 01:30:42;;;;;;;11.35;6.10;;;;;;;-5.95;65.24;101650.47;1775306;80;21398;-78
2022/01/12 01:33:10;;;;;;;9.05;4.58;;;;;;;-5.93;65.22;101654.31;1775829;80;21011;-77
2022/01/12 01:35:40;;;;;;;7.87;4.92;;;;;;;-5.94;65.30;101650.87;1782007;80;21145;-76
2022/01/12 01:38:07;;;;;;;7.33;4.87;;;;;;;-5.94;65.29;101649.59;1783669;80;21481;-78
2022/01/12 01:40:37;;;;;;;6.33;4.33;;;;;;;-5.93;65.23;101642.40;1783870;80;20924;-78
2022/01/12 01:53:53;;;;;;;6.78;4.40;;;;;;;-5.97;64.80;101663.61;1783980;80;20096;-76
2022/01/12 01:56:20;;;;;;;7.95;5.10;;;;;;;-6.01;64.71;101669.46;1783783;80;20908;-77
2022/01/12 01:58:47;;;;;;;9.18;5.30;;;;;;;-6.08;64.81;101672.70;1783517;80;20975;-78
2022/01/12 02:01:16;;;;;;;6.42;5.10;;;;;;;-6.12;64.73;101677.27;1783238;80;20848;-77
2022/01/12 02:03:45;;;;;;;5.60;4.10;;;;;;;-6.16;64.88;101671.20;1783104;80;20932;-79
2022/01/12 02:06:12;;;;;;;8.55;5.15;;;;;;;-6.20;64.60;101669.43;1783801;80;20924;-77
2022/01/12 02:08:40;;;;;;;6.08;4.17;;;;;;;-6.28;64.89;101678.14;1783487;80;20944;-78
2022/01/12 02:11:08;;;;;;;8.93;5.72;;;;;;;-6.28;65.30;101673.46;1782250;80;20876;-78
2022/01/12 02:13:37;;;;;;;8.75;5.47;;;;;;;-6.30;65.53;101677.66;1783306;80;21552;-78
2022/01/12 02:16:04;;;;;;;8.38;5.42;;;;;;;-6.30;65.99;101683.63;1783463;80;20888;-77
2022/01/12 02:18:52;;;;;;;8.20;5.12;;;;;;;-6.31;66.08;101677.22;1784456;80;20849;-76
2022/01/12 02:35:17;;;;;;;9.50;6.62;;;;;;;-6.41;67.61;101695.66;1779888;80;21066;-77
2022/01/12 02:40:40;;;;;;;12.73;8.13;;;;;;;-6.35;67.93;101701.78;1775190;80;22027;-78
2022/01/12 02:43:27;;;;;;;11.73;6.95;;;;;;;-6.34;68.04;101703.92;1775313;80;21436;-76
2022/01/12 02:53:48;;;;;;;13.88;6.72;;;;;;;-6.14;68.68;101706.58;1744797;82;21521;-76
2022/01/12 02:56:27;;;;;;;13.93;9.00;;;;;;;-6.10;68.76;101703.28;1744380;82;21043;-76
2022/01/12 02:58:56;;;;;;;9.98;7.55;;;;;;;-6.06;68.82;101709.34;1744815;82;20904;-76
2022/01/12 03:04:02;;;;;;;14.43;7.97;;;;;;;-6.05;69.04;101711.95;1744896;82;21007;-77
2022/01/12 03:06:33;;;;;;;13.32;8.73;;;;;;;-6.03;68.92;101706.86;1744679;82;21170;-77
2022/01/12 03:08:59;;;;;;;10.70;7.80;;;;;;;-6.03;69.08;101714.94;1744440;82;20952;-78
2022/01/12 03:11:27;;;;;;;15.78;7.83;;;;;;;-6.05;69.06;101712.33;1744808;82;20869;-77
2022/01/12 03:13:56;;;;;;;12.35;7.85;;;;;;;-6.14;69.11;101706.58;1723661;82;20948;-77
2022/01/12 03:16:25;;;;;;;10.63;7.80;;;;;;;-6.19;69.31;101709.43;1723170;82;20888;-79
2022/01/12 03:18:54;;;;;;;13.35;8.43;;;;;;;-6.20;69.45;101704.27;1723497;82;21147;-78
2022/01/12 03:21:25;;;;;;;11.38;8.05;;;;;;;-6.21;69.55;101702.56;1744403;82;20900;-78
2022/01/12 03:23:52;;;;;;;10.60;6.97;;;;;;;-6.19;69.74;101706.02;1744166;82;21035;-78
2022/01/12 03:26:19;;;;;;;10.30;7.83;;;;;;;-6.14;69.76;101707.00;1744529;82;21469;-75
2022/01/12 03:28:54;;;;;;;16.75;8.60;;;;;;;-6.12;69.61;101714.28;1744835;82;20861;-75
2022/01/12 03:31:26;;;;;;;11.55;6.90;;;;;;;-6.12;69.58;101715.56;1744662;82;21810;-75
2022/01/12 03:33:58;;;;;;;12.15;9.13;;;;;;;-6.11;69.61;101711.78;1744726;82;21431;-76
2022/01/12 03:36:29;;;;;;;14.30;7.70;;;;;;;-6.13;69.60;101705.77;1751297;82;20908;-75
2022/01/12 03:39:05;;;;;;;11.40;7.08;;;;;;;-6.13;69.50;101707.47;1752671;82;20932;-76
2022/01/12 03:41:35;;;;;;;12.63;7.90;;;;;;;-6.18;69.33;101706.08;1752631;82;20939;-77
2022/01/12 03:44:04;;;;;;;12.33;7.58;;;;;;;-6.21;69.49;101708.94;1753479;82;21133;-76
2022/01/12 03:46:46;;;;;;;11.55;7.00;;;;;;;-6.23;69.46;101700.38;1753765;82;20936;-76
2022/01/12 03:49:15;;;;;;;11.55;7.20;;;;;;;-6.28;69.53;101692.19;1752905;82;20987;-76
2022/01/12 03:51:42;;;;;;;10.05;6.72;;;;;;;-6.30;69.52;101690.42;1752556;82;20896;-77
2022/01/12 03:54:13;;;;;;;12.33;7.50;;;;;;;-6.31;69.26;101700.19;1752506;82;20991;-78
2022/01/12 03:56:39;;;;;;;11.40;7.00;;;;;;;-6.37;69.17;101702.16;1752437;82;21831;-76
2022/01/12 03:59:06;;;;;;;11.60;8.45;;;;;;;-6.38;69.38;101700.83;1752626;82;20864;-78
2022/01/12 04:01:35;;;;;;;10.28;7.60;;;;;;;-6.39;69.14;101698.70;1752328;81;21022;-79
2022/01/12 04:04:07;;;;;;;11.20;7.10;;;;;;;-6.41;68.90;101702.89;1752572;82;21011;-78
2022/01/12 04:09:17;;;;;;;;;;;;;;;-6.55;68.46;101688.49;1755395;82;21488;-77
2022/01/12 04:11:44;;;;;;;12.85;8.20;;;;;;;-6.56;68.44;101694.81;1752334;82;20181;-78
2022/01/12 04:14:12;;;;;;;9.58;6.65;;;;;;;-6.52;68.45;101701.32;1752823;82;21406;-77
2022/01/12 04:16:40;;;;;;;9.18;7.10;;;;;;;-6.51;68.37;101695.41;1752399;82;21101;-80
2022/01/12 04:19:06;;;;;;;10.13;6.85;;;;;;;-6.50;68.41;101693.30;1752851;82;20852;-79
2022/01/12 04:21:43;;;;;;;9.05;5.97;;;;;;;-6.46;68.67;101696.81;1752460;82;21166;-78
2022/01/12 04:24:03;;;;;;;10.45;6.87;;;;;;;-6.45;68.09;101690.87;1721407;82;21133;-76
2022/01/12 04:26:30;;;;;;;12.28;7.78;;;;;;;-6.45;68.13;101697.25;1752562;82;20959;-77
2022/01/12 04:28:57;;;;;;;14.13;6.62;;;;;;;-6.46;68.20;101698.09;1752247;82;21026;-77
2022/01/12 04:31:24;;;;;;;11.05;6.72;;;;;;;-6.43;68.10;101697.30;1752717;82;21430;-76
2022/01/12 04:33:51;;;;;;;8.45;5.37;;;;;;;-6.44;67.63;101704.09;1752537;82;21090;-76
2022/01/12 04:36:18;;;;;;;8.23;5.37;;;;;;;-6.44;67.58;101700.69;1746443;82;20948;-76
2022/01/12 04:38:45;;;;;;;8.53;4.70;;;;;;;-6.42;67.08;101698.63;1744429;82;20876;-77
2022/01/12 04:41:12;;;;;;;8.85;5.40;;;;;;;-6.46;66.15;101697.67;1744781;82;20939;-77
2022/01/12 04:43:42;;;;;;;8.35;5.00;;;;;;;-6.50;66.05;101695.84;1723551;82;20944;-76
2022/01/12 04:46:23;;;;;;;5.92;5.12;;;;;;;-6.51;66.17;101703.06;1744816;82;21110;-77
2022/01/12 04:51:09;;;;;;;8.50;5.60;;;;;;;-6.53;66.41;101693.65;1744434;82;20873;-78
2022/01/12 04:53:36;;;;;;;7.53;4.87;;;;;;;-6.54;66.17;101698.28;1744771;82;20995;-78
2022/01/12 04:56:04;;;;;;;7.37;5.05;;;;;;;-6.52;66.31;101697.91;1723338;82;21348;-77
2022/01/12 04:58:32;;;;;;;8.48;4.97;;;;;;;-6.51;66.18;101701.79;1744407;82;21566;-80
2022/01/12 05:01:07;;;;;;;8.38;5.20;;;;;;;-6.45;66.22;101713.83;1744438;82;20999;-79
2022/01/12 05:06:36;;;;;;;9.45;4.58;;;;;;;-6.41;65.40;101710.97;1744657;82;20876;-79
2022/01/12 05:08:53;;;;;;;6.53;4.70;;;;;;;-6.41;64.98;101714.80;1742032;82;21003;-78
2022/01/12 05:14:07;;;;;;;9.65;5.20;;;;;;;-6.41;65.19;101721.17;1703265;82;20983;-77
2022/01/12 05:16:34;;;;;;;11.08;5.83;;;;;;;-6.42;65.04;101710.50;1744429;82;20917;-77
2022/01/12 05:19:04;;;;;;;5.62;4.80;;;;;;;-6.43;65.00;101712.19;1744723;82;20884;-77
2022/01/12 05:21:29;;;;;;;6.87;4.80;;;;;;;-6.46;64.74;101715.53;1744366;82;21058;-75
2022/01/12 05:24:00;;;;;;;8.23;4.92;;;;;;;-6.58;64.51;101712.66;1744409;82;21541;-77
2022/01/12 05:26:25;;;;;;;8.55;5.30;;;;;;;-6.68;64.71;101708.97;1744527;82;20912;-79
2022/01/12 05:28:52;;;;;;;8.48;6.10;;;;;;;-6.72;64.93;101711.39;1744742;82;20892;-78
2022/01/12 05:31:20;;;;;;;6.40;4.80;;;;;;;-6.77;65.04;101706.58;1744492;82;21502;-78
2022/01/12 05:33:48;;;;;;;6.45;4.35;;;;;;;-6.80;65.20;101719.22;1744730;82;20995;-79
2022/01/12 05:36:18;;;;;;;8.45;5.58;;;;;;;-6.81;65.04;101715.81;1744423;82;21168;-77
2022/01/12 05:38:46;;;;;;;5.92;4.45;;;;;;;-6.82;65.13;101719.62;1744512;82;20857;-76
2022/01/12 05:41:13;;;;;;;5.87;4.53;;;;;;;-6.88;65.14;101726.25;1723289;82;20905;-76
2022/01/12 05:43:41;;;;;;;8.13;5.25;;;;;;;-6.89;65.42;101726.22;1744708;82;20976;-76
2022/01/12 05:46:10;;;;;;;6.08;4.85;;;;;;;-6.90;65.58;101734.67;1744414;82;20939;-74
2022/01/12 05:51:29;;;;;;;8.10;6.28;;;;;;;-6.86;65.79;101726.72;1744477;82;20952;-74
2022/01/12 05:53:56;;;;;;;8.50;5.58;;;;;;;-6.82;65.73;101733.64;1744339;82;20912;-75
2022/01/12 05:56:24;;;;;;;10.65;6.83;;;;;;;-6.79;65.86;101737.12;1744825;82;20936;-76
2022/01/12 05:58:51;;;;;;;6.50;5.45;;;;;;;-6.77;65.79;101737.18;1744716;82;20990;-78
2022/01/12 06:01:18;;;;;;;6.70;5.58;;;;;;;-6.75;65.76;101731.72;1744939;82;21468;-76
2022/01/12 06:03:45;;;;;;;8.08;5.67;;;;;;;-6.71;65.68;101738.64;1744565;82;21374;-75
2022/01/12 06:06:12;;;;;;;10.78;4.17;;;;;;;-6.67;65.72;101743.87;1744915;82;20868;-73
2022/01/12 06:08:39;;;;;;;7.47;5.33;;;;;;;-6.63;64.92;101728.64;1744546;82;20920;-75
2022/01/12 06:11:07;;;;;;;7.28;5.42;;;;;;;-6.65;65.04;101745.59;1744782;82;20869;-76
2022/01/12 06:13:35;;;;;;;6.28;5.22;;;;;;;-6.68;64.31;101749.77;1744453;82;21165;-76
2022/01/12 06:16:03;;;;;;;7.08;4.78;;;;;;;-6.72;64.35;101756.88;1744644;82;20892;-76
2022/01/12 06:18:31;;;;;;;7.92;4.95;;;;;;;-6.72;64.04;101754.33;1744769;82;20940;-75
2022/01/12 06:20:58;;;;;;;10.65;5.25;;;;;;;-6.74;63.49;101758.52;1744503;82;20928;-74
2022/01/12 06:23:33;;;;;;;17.82;6.55;;;;;;;-6.75;63.24;101754.67;1743698;82;20986;-74
2022/01/12 06:26:01;;;;;;;7.80;4.87;;;;;;;-6.75;62.78;101755.94;1744550;82;22080;-74
2022/01/12 06:31:18;;;;;;;11.80;5.72;;;;;;;-6.81;62.36;101754.48;1744877;82;20928;-73
2022/01/12 06:33:44;;;;;;;10.13;5.37;;;;;;;-6.90;62.50;101754.66;1743626;82;20912;-73
2022/01/12 06:36:17;;;;;;;9.15;5.58;;;;;;;-6.95;63.00;101761.31;1748033;82;20864;-72
2022/01/12 06:38:44;;;;;;;8.45;6.12;;;;;;;-6.93;63.42;101750.75;1752686;82;21128;-74
2022/01/12 06:41:12;;;;;;;11.15;5.62;;;;;;;-6.86;63.63;101762.00;1752750;82;20947;-74
2022/01/12 06:43:39;;;;;;;8.75;5.78;;;;;;;-6.81;63.85;101758.30;1752512;82;20940;-73
2022/01/12 06:46:07;;;;;;;11.33;5.87;;;;;;;-6.74;63.86;101766.16;1752424;82;20892;-74
2022/01/12 06:48:34;;;;;;;8.70;5.83;;;;;;;-6.66;63.83;101761.30;1752463;82;20896;-74
2022/01/12 06:51:03;;;;;;;10.03;5.85;;;;;;;-6.67;63.85;101764.27;1752738;82;21110;-74
2022/01/12 06:53:32;;;;;;;7.35;4.37;;;;;;;-6.65;63.86;101769.81;1751860;82;20916;-74
2022/01/12 06:55:59;;;;;;;8.10;5.05;;;;;;;-6.67;63.74;101764.27;1752678;82;21634;-74
2022/01/12 06:58:26;;;;;;;7.72;4.67;;;;;;;-6.67;63.77;101752.80;1752606;82;20895;-74
2022/01/12 07:00:53;;;;;;;9.20;4.90;;;;;;;-6.63;64.12;101761.80;1752752;82;20996;-75
2022/01/12 07:03:21;;;;;;;7.87;4.72;;;;;;;-6.60;63.93;101764.42;1752430;82;21528;-74
2022/01/12 07:05:55;;;;;;;7.30;4.62;;;;;;;-6.53;63.84;101767.63;1752556;82;20939;-74
2022/01/12 07:08:24;;;;;;;7.80;5.72;;;;;;;-6.42;63.59;101761.53;1752443;82;20896;-74
2022/01/12 07:10:51;;;;;;;6.15;4.28;;;;;;;-6.37;62.90;101771.48;1752486;82;20912;-73
2022/01/12 07:13:20;;;;;;;6.15;4.33;;;;;;;-6.37;62.32;101771.05;1752148;82;20993;-74
2022/01/12 07:15:47;;;;;;;7.90;4.85;;;;;;;-6.45;61.79;101769.97;1752622;82;21142;-74
2022/01/12 07:18:14;;;;;;;7.10;4.37;;;;;;;-6.51;62.19;101772.37;1752468;82;20864;-73
2022/01/12 07:20:42;;;;;;;5.75;4.85;;;;;;;-6.55;62.40;101767.58;1752397;82;20956;-75
2022/01/12 07:23:11;;;;;;;7.83;5.47;;;;;;;-6.56;62.59;101764.59;1752247;82;21007;-75
2022/01/12 07:25:38;;;;;;;6.50;4.53;;;;;;;-6.52;62.89;101761.69;1752826;82;20915;-73
2022/01/12 07:28:05;;;;;;;7.03;4.35;;;;;;;-6.42;62.75;101758.98;1752485;82;21522;-75
2022/01/12 07:30:32;;;;;;;7.35;4.97;;;;;;;-6.38;62.53;101759.14;1752499;82;21389;-74
2022/01/12 07:32:58;;;;;;;8.50;5.78;;;;;;;-6.40;62.46;101758.22;1752463;82;20888;-74
2022/01/12 07:35:25;;;;;;;10.40;6.03;;;;;;;-6.38;62.52;101769.73;1752501;82;20900;-73
2022/01/12 07:37:52;;;;;;;7.60;5.10;;;;;;;-6.35;62.52;101768.14;1752497;82;20896;-78
2022/01/12 07:40:19;;;;;;;8.98;5.75;;;;;;;-6.31;62.58;101768.68;1752590;82;21168;-78
2022/01/12 07:42:46;;;;;;;6.80;4.87;;;;;;;-6.23;62.73;101771.84;1752376;82;20876;-79
2022/01/12 07:45:14;;;;;;;8.70;5.72;;;;;;;-6.16;62.61;101767.36;1752677;82;20908;-78
2022/01/12 07:47:40;;;;;;;12.23;4.58;;;;;;;-6.14;62.59;101770.81;1752669;82;21000;-79
2022/01/12 07:50:08;;;;;;;5.72;4.75;;;;;;;-6.10;62.41;101768.80;1752496;82;20971;-75
2022/01/12 07:52:35;;;;;;;7.85;5.40;;;;;;;-6.11;62.30;101773.05;1752397;82;21778;-77
2022/01/12 07:55:03;;;;;;;6.58;4.67;;;;;;;-6.09;62.62;101771.41;1752164;82;21509;-77
2022/01/12 07:57:31;;;;;;;8.20;6.25;;;;;;;-6.02;62.48;101775.38;1751787;82;20943;-74
2022/01/12 07:59:58;;;;;;;9.78;5.35;;;;;;;-5.99;62.57;101777.61;1752573;82;21563;-74
2022/01/12 08:02:25;;;;;;;11.50;4.70;;;;;;;-5.97;62.34;101781.08;1753891;82;21015;-75
2022/01/12 08:04:51;;;;;;;13.58;4.35;;;;;;;-5.96;62.80;101776.82;1752676;81;21932;-74
2022/01/12 08:07:20;;;;;;;7.75;5.22;;;;;;;-5.92;62.63;101781.16;1752354;81;20992;-75
2022/01/12 08:09:47;;;;;;;5.80;4.45;;;;;;;-5.99;62.76;101767.82;1752542;82;21691;-77
2022/01/12 08:12:13;;;;;;;8.95;5.30;;;;;;;-5.98;63.85;101775.91;1752311;82;20927;-77
2022/01/12 08:14:40;;;;;;;6.12;4.83;;;;;;;-5.93;63.20;101779.45;1752529;82;20967;-77
2022/01/12 08:17:07;;;;;;;10.13;5.55;;;;;;;-5.91;63.73;101772.69;1752410;82;21136;-79
2022/01/12 08:19:36;;;;;;;7.75;5.35;;;;;;;-5.82;63.61;101778.03;1752451;82;20949;-78
2022/01/12 08:22:04;;;;;;;7.08;5.08;;;;;;;-5.76;63.48;101779.44;1747467;82;20864;-78
2022/01/12 08:24:33;;;;;;;7.97;5.28;;;;;;;-5.74;63.41;101773.96;1752406;82;21081;-79
2022/01/12 08:26:59;;;;;;;6.45;4.60;;;;;;;-5.72;63.33;101776.56;1752401;82;20905;-79
2022/01/12 08:29:28;;;;;;;5.70;3.92;;;;;;;-5.70;62.86;101775.77;1752453;82;21142;-79
2022/01/12 08:31:55;;;;;;;4.05;3.50;;;;;;;-5.64;62.75;101768.69;1752793;82;21038;-73
2022/01/12 08:34:22;;;;;;;6.97;4.25;;;;;;;-5.57;62.26;101767.15;1752597;82;20944;-77
2022/01/12 08:36:49;;;;;;;6.53;4.35;;;;;;;-5.58;62.05;101772.69;1752284;82;21477;-77
2022/01/12 08:39:16;;;;;;;8.10;4.40;;;;;;;-5.59;62.34;101770.08;1752312;82;20932;-77
2022/01/12 08:41:42;;;;;;;8.25;4.60;;;;;;;-5.57;62.71;101774.81;1752515;81;21525;-77
2022/01/12 08:44:09;;;;;;;6.58;4.95;;;;;;;-5.54;62.86;101775.73;1752667;82;20999;-76
2022/01/12 08:46:37;;;;;;;9.73;4.85;;;;;;;-5.56;63.11;101769.72;1753022;82;20916;-77
2022/01/12 08:49:04;;;;;;;10.08;5.10;;;;;;;-5.57;63.21;101774.39;1752637;82;21490;-79
2022/01/12 08:51:32;;;;;;;6.60;4.90;;;;;;;-5.59;63.41;101767.10;1752568;82;20923;-77
2022/01/12 08:53:59;;;;;;;14.78;4.05;;;;;;;-5.60;63.88;101759.39;1752758;82;21067;-77
2022/01/12 08:56:26;;;;;;;8.28;5.03;;;;;;;-5.64;63.89;101760.61;1752363;82;21460;-79
2022/01/12 08:58:53;;;;;;;8.80;5.30;;;;;;;-5.64;64.02;101760.61;1752340;82;20943;-77
2022/01/12 09:01:20;;;;;;;7.83;5.35;;;;;;;-5.64;64.10;101758.47;1752619;81;21453;-80
2022/01/12 09:03:47;;;;;;;7.00;4.67;;;;;;;-5.66;64.51;101753.73;1752716;82;20923;-78
2022/01/12 09:06:14;;;;;;;5.70;4.17;;;;;;;-5.68;64.43;101754.11;1752447;82;21136;-78
2022/01/12 09:08:44;;;;;;;9.78;4.90;;;;;;;-5.67;64.38;101764.38;1752502;82;20884;-79
2022/01/12 09:11:11;;;;;;;5.55;4.10;;;;;;;-5.63;64.28;101762.73;1752577;82;20892;-80
2022/01/12 09:13:39;;;;;;;8.88;5.17;;;;;;;-5.60;64.28;101760.67;1752290;81;20955;-80
2022/01/12 09:16:06;;;;;;;8.50;5.30;;;;;;;-5.59;64.40;101756.88;1752346;82;21022;-79
2022/01/12 09:18:35;;;;;;;7.12;6.00;;;;;;;-5.55;64.34;101753.58;1752430;82;21209;-78
2022/01/12 09:21:02;;;;;;;8.63;4.33;;;;;;;-5.52;64.27;101747.25;1752399;82;20892;-77
2022/01/12 09:23:30;;;;;;;8.98;4.85;;;;;;;-5.48;64.20;101753.31;1750899;82;20991;-78
2022/01/12 09:25:57;;;;;;;5.60;4.53;;;;;;;-5.45;63.47;101744.44;1753227;82;20904;-77
2022/01/12 09:28:23;;;;;;;8.35;5.47;;;;;;;-5.46;63.73;101751.24;1753870;82;21389;-77
2022/01/12 09:30:53;;;;;;;5.95;4.58;;;;;;;-5.43;63.74;101735.97;1752398;82;21520;-76
2022/01/12 09:33:20;;;;;;;5.42;4.28;;;;;;;-5.37;63.48;101739.52;1752746;82;21003;-77
2022/01/12 09:35:49;;;;;;;6.20;4.78;;;;;;;-5.34;63.19;101743.41;1752377;82;21350;-77
2022/01/12 09:38:17;;;;;;;5.83;4.22;;;;;;;-5.34;63.01;101739.58;1752683;82;20926;-76
2022/01/12 09:40:45;;;;;;;8.28;4.37;;;;;;;-5.34;62.12;101735.73;1752475;82;21333;-77
2022/01/12 09:43:14;;;;;;;9.35;4.65;;;;;;;-5.45;61.46;101736.77;1752928;81;21110;-77
2022/01/12 09:45:45;;;;;;;7.22;4.65;;;;;;;-5.53;61.58;101734.04;1752712;81;20943;-77
2022/01/12 09:48:10;;;;;;;5.83;4.00;;;;;;;-5.53;61.06;101731.48;1752015;81;20936;-76
2022/01/12 09:51:40;;;;;;;9.33;4.08;;;;;;;-5.52;60.14;101737.03;1798416;79;22629;-80
2022/01/12 09:54:09;;;;;;;8.45;4.87;;;;;;;-5.55;60.00;101738.67;1758280;81;20844;-78
2022/01/12 09:56:36;;;;;;;6.58;4.58;;;;;;;-5.46;59.93;101742.72;1758402;80;21147;-78
2022/01/12 09:59:04;;;;;;;6.60;4.65;;;;;;;-5.39;58.98;101742.45;1724796;83;20978;-77
2022/01/12 10:01:34;;;;;;;6.28;4.00;;;;;;;-5.37;58.33;101736.96;1724716;81;21051;-79
2022/01/12 10:04:17;;;;;;;8.15;4.72;;;;;;;-5.36;58.13;101739.95;1725167;83;20927;-79
2022/01/12 10:06:47;;;;;;;10.45;5.15;;;;;;;-5.34;58.39;101738.30;1724802;82;21549;-78
2022/01/12 10:09:16;;;;;;;16.95;5.83;;;;;;;-5.29;58.16;101737.98;1724742;83;20920;-77
2022/01/12 10:12:04;;;;;;;6.83;3.62;;;;;;;-5.27;57.96;101738.87;1724764;82;20931;-76
2022/01/12 10:14:58;;;;;;;7.25;4.22;;;;;;;-5.31;57.58;101737.97;1724860;83;20931;-78
2022/01/12 10:17:38;;;;;;;5.43;4.20;;;;;;;-5.41;57.56;101738.15;1724869;81;21485;-76
2022/01/12 10:20:21;;;;;;;6.58;4.50;;;;;;;-5.46;57.57;101735.05;1725121;82;21048;-75
2022/01/12 10:23:10;;;;;;;10.15;4.50;;;;;;;-5.56;57.75;101727.56;1724688;83;21061;-76
2022/01/12 10:25:36;;;;;;;8.80;4.83;;;;;;;-5.57;58.18;101726.27;1724479;83;21231;-72
2022/01/12 10:28:18;;;;;;;6.85;4.47;;;;;;;-5.59;58.29;101731.33;1724712;82;21509;-78
2022/01/12 10:31:00;;;;;;;7.05;4.47;;;;;;;-5.56;58.32;101727.98;1724721;83;20994;-75
2022/01/12 10:33:33;;;;;;;8.58;4.87;;;;;;;-5.57;58.14;101722.44;1724645;83;21095;-77
2022/01/12 10:36:03;;;;;;;6.25;4.62;;;;;;;-5.63;58.40;101720.58;1725026;83;21385;-78
2022/01/12 10:38:29;;;;;;;7.72;4.58;;;;;;;-5.66;58.65;101725.21;1724712;83;20872;-78
2022/01/12 10:41:04;;;;;;;6.90;5.00;;;;;;;-5.66;58.75;101720.52;1725145;83;21421;-79
2022/01/12 10:43:35;;;;;;;6.53;4.80;;;;;;;-5.64;59.14;101720.14;1698054;83;21605;-79
2022/01/12 10:46:17;;;;;;;4.97;3.95;;;;;;;-5.68;59.19;101720.89;1725022;82;20998;-79
2022/01/12 10:48:48;;;;;;;6.47;4.10;;;;;;;-5.74;59.11;101719.45;1724718;83;21147;-79
2022/01/12 10:51:27;;;;;;;6.30;4.58;;;;;;;-5.85;58.69;101720.47;1714142;82;21097;-77
2022/01/12 10:54:01;;;;;;;7.20;4.60;;;;;;;-5.94;58.65;101718.55;1710152;83;20940;-80
2022/01/12 10:56:28;;;;;;;8.60;5.27;;;;;;;-6.00;58.80;101719.72;1709860;82;20861;-79
2022/01/12 10:58:57;;;;;;;9.88;4.33;;;;;;;-6.06;58.93;101716.58;1709473;84;20939;-81
2022/01/12 11:01:28;;;;;;;7.20;4.42;;;;;;;-6.14;58.95;101715.52;1709627;84;21148;-77
2022/01/12 11:03:57;;;;;;;8.50;5.05;;;;;;;-6.17;59.27;101714.17;1708910;84;21078;-77
2022/01/12 11:06:25;;;;;;;6.72;4.53;;;;;;;-6.17;59.73;101719.27;1709011;84;20955;-79
2022/01/12 11:08:52;;;;;;;8.00;4.72;;;;;;;-6.15;60.11;101725.28;1709292;84;21015;-79
2022/01/12 11:11:20;;;;;;;9.08;6.17;;;;;;;-6.20;60.28;101712.82;1709668;82;20944;-79
2022/01/12 11:13:50;;;;;;;7.85;4.72;;;;;;;-6.22;60.95;101713.58;1709269;84;20936;-78
2022/01/12 11:16:23;;;;;;;8.65;4.72;;;;;;;-6.20;61.18;101713.20;1708837;84;20920;-79
2022/01/12 11:18:52;;;;;;;6.90;4.75;;;;;;;-6.17;61.47;101723.10;1709580;84;20943;-77
2022/01/12 11:21:27;;;;;;;5.53;4.25;;;;;;;-6.24;61.09;101726.33;1709411;84;20937;-78
2022/01/12 11:23:57;;;;;;;7.08;5.70;;;;;;;-6.30;61.02;101724.45;1746865;81;20944;-75
2022/01/12 11:26:26;;;;;;;7.58;4.53;;;;;;;-6.37;60.91;101717.47;1747569;82;21213;-79
2022/01/12 11:28:54;;;;;;;11.97;5.25;;;;;;;-6.39;61.42;101713.15;1747314;81;20925;-77
2022/01/12 11:31:33;;;;;;;8.50;5.45;;;;;;;-6.35;61.60;101721.34;1746097;82;21540;-76
2022/01/12 11:34:00;;;;;;;5.58;3.65;;;;;;;-6.31;61.65;101714.23;1744959;82;20948;-75
2022/01/12 11:36:38;;;;;;;5.85;4.70;;;;;;;-6.32;61.36;101714.61;1745612;82;21378;-76
2022/01/12 11:39:13;;;;;;;5.87;4.42;;;;;;;-6.34;61.28;101726.47;1744588;82;22017;-76
2022/01/12 11:41:43;;;;;;;7.22;5.40;;;;;;;-6.33;61.08;101730.77;1744504;82;20877;-77
2022/01/12 11:44:18;;;;;;;9.78;5.35;;;;;;;-6.32;61.01;101727.38;1744820;82;20870;-78
2022/01/12 11:46:50;;;;;;;10.58;4.62;;;;;;;-6.29;60.96;101740.23;1744416;81;20901;-77
2022/01/12 11:49:31;;;;;;;9.33;4.60;;;;;;;-6.26;60.87;101729.25;1744580;81;20924;-78
2022/01/12 11:52:00;;;;;;;7.40;4.62;;;;;;;-6.22;60.82;101734.89;1744503;81;21537;-78
2022/01/12 11:54:36;;;;;;;7.72;4.92;;;;;;;-6.21;59.87;101734.47;1744421;81;21343;-75
2022/01/12 11:57:07;;;;;;;8.40;5.22;;;;;;;-6.26;59.81;101738.17;1744435;82;20964;-78
2022/01/12 12:00:00;;;;;;;5.95;4.62;;;;;;;-6.22;59.90;101736.55;1744395;81;20964;-78
2022/01/12 12:02:39;;;;;;;9.70;4.58;;;;;;;-6.22;59.37;101745.48;1744886;81;21442;-80
2022/01/12 12:05:14;;;;;;;5.85;3.90;;;;;;;-6.24;58.78;101743.33;1744675;81;21145;-82
2022/01/12 12:07:52;;;;;;;10.10;5.55;;;;;;;-6.33;58.77;101746.50;1744626;81;20901;-78
2022/01/12 12:10:25;;;;;;;5.67;3.90;;;;;;;-6.37;58.75;101743.41;1744614;81;20893;-79
2022/01/12 12:12:53;;;;;;;7.03;4.83;;;;;;;-6.39;58.86;101740.80;1744548;81;20932;-79
2022/01/12 12:15:25;;;;;;;7.08;4.97;;;;;;;-6.43;59.12;101740.67;1744559;81;20968;-80
2022/01/12 12:17:53;;;;;;;6.97;4.20;;;;;;;-6.49;59.13;101741.36;1745926;82;21818;-78
2022/01/12 12:20:23;;;;;;;6.80;4.58;;;;;;;-6.55;59.08;101733.14;1745283;82;20845;-79
2022/01/12 12:22:52;;;;;;;5.40;3.98;;;;;;;-6.64;58.94;101736.71;1744634;81;20889;-80
2022/01/12 12:25:22;;;;;;;6.58;4.92;;;;;;;-6.76;59.14;101743.99;1745308;82;20865;-78
2022/01/12 12:27:53;;;;;;;8.45;4.97;;;;;;;-6.81;59.75;101736.21;1747017;81;20928;-78
2022/01/12 12:30:21;;;;;;;7.15;4.60;;;;;;;-6.82;60.00;101743.42;1748002;81;21103;-77
2022/01/12 12:32:53;;;;;;;9.25;5.25;;;;;;;-6.76;60.26;101735.06;1747770;79;20854;-79
2022/01/12 12:35:28;;;;;;;8.38;5.08;;;;;;;-6.72;60.52;101732.65;1711882;81;20947;-77
2022/01/12 12:38:01;;;;;;;7.70;4.55;;;;;;;-6.71;60.59;101744.59;1711862;84;20920;-80
2022/01/12 12:40:33;;;;;;;7.17;4.10;;;;;;;-6.68;60.79;101744.67;1712081;84;20868;-80
2022/01/12 12:43:20;;;;;;;7.15;4.78;;;;;;;-6.65;60.65;101736.66;1711717;84;21461;-80
2022/01/12 12:45:59;;;;;;;6.40;4.15;;;;;;;-6.65;60.73;101743.89;1747427;81;20953;-81